Armington, IL (61721)

8:20 AM CST on December 04, 2016 (GMT -0600)
BFE Armington | | Change Station
Active Advisory: Winter Weather Advisory

Elev 627 ft 40.34 °N, 89.31 °W | Updated 2 minutes ago

Light Rain
Light Rain
33.1 °F
Feels Like 30 °F
N
3.2
Wind Variable Wind from ESE

Today
High -- | Low -- °F
--% Chance of Precip.
Yesterday
High -- | Low -- °F
Precip. -- in
Pressure 30.07 in
Visibility 5.0 miles
Clouds Mostly Cloudy 2700 ft
Overcast 3300 ft
Windchill 30 °F
Dew Point 32 °F
Humidity 94%
Rainfall 0.00 in
Snow Depth Not available.
7:04 AM 4:30 PM
Waxing Crescent, 23% visible
METAR KAAA 041415Z AUTO 10007KT 5SM -RA BKN027 OVC033 02/01 A3007 RMK AO2 T00150005
Pressure 30.07 in
Visibility 5.0 miles
Clouds Mostly Cloudy 2700 ft
Overcast 3300 ft
Windchill 30 °F
Dew Point 32 °F
Humidity 94%
Rainfall 0.00 in
Snow Depth Not available.
7:04 AM 4:30 PM
Waxing Crescent, 23% visible
METAR KAAA 041415Z AUTO 10007KT 5SM -RA BKN027 OVC033 02/01 A3007 RMK AO2 T00150005

10-Day Weather Forecast

Almanac

Astronomy

Dec. 04, 2016 Rise Set
Actual Time
Civil Twilight
Nautical Twilight
Astronomical Twilight
Moon
Length of Visible Light
Length of Day
Tomorrow will be .
, % of the Moon is Illuminated

Today's Extremes

State Highs State Lows

Community

WunderPhotos

Upload Photos

1,955,596 photos uploaded!

WunderBlog® & News

Nearby

Air Quality

  Air Quality AQ Index Pollutant
Not available.

Snow Depth

Station Depth Elevation

Earthquake Activity

City Distance Mag. Time & Date
Minimum magnitude displayed is 2.5.

Coastal Water Temperatures

Place Temperature

Stations

Nearby Weather Stations

Station Location Temp. Windchill Dew Point Humidity Wind Precip. Elev Updated Type
                   

Watches & Warnings

Winter Weather Advisory
Issued: 4:37 AM CST Dec. 4, 2016 – National Weather Service

... Winter Weather Advisory in effect from 9 am this morning to
6 PM CST this evening...

The National Weather Service in Lincoln has issued a Winter
Weather Advisory for snowfall... which is in effect from 9 am this
morning to 6 PM CST this evening.

* Timing... accumulating snow will begin around 9 am and continue
through the late afternoon... ending around 6 PM.

* Main impact... 2 to 3 inches of snow will accumulate across the
advisory area. Locally higher amounts of up to 4 inches is
possible across Stark... Marshall and Woodford counties.

* Other impacts... ground temperatures in the middle 30s... combined
with air temperatures holding fairly steady in the middle
30s... could cause roadways to become slushy during the
afternoon. Drivers are advised to use caution if roadways do
become slushy.

Precautionary/preparedness actions...

A Winter Weather Advisory for snow means that periods of snow
will cause primarily travel difficulties. Be prepared for snow
covered roads and limited visibilities... and use caution while
driving.



Auten